Time;durP1;ratioP1;P1;durP2;ratioP2;P2;SDS_P1;SDS_P2;PMS_P1;PMS_P2;Temp;Humidity;BMP_temperature;BMP_pressure;BME280_temperature;BME280_humidity;BME280_pressure;Samples;Min_cycle;Max_cycle;Signal;HPM_P1;HPM_P2
2022/07/06 00:01:35;;;;;;;5.77;5.37;;;15.90;15.20;;;;;;5075450;28;20179;-68
2022/07/06 00:04:04;;;;;;;5.20;4.90;;;15.90;14.90;;;;;;5075356;28;20260;-68
2022/07/06 00:06:30;;;;;;;5.67;5.27;;;15.90;15.30;;;;;;5075056;28;20304;-69
2022/07/06 00:08:56;;;;;;;4.60;4.30;;;15.80;15.40;;;;;;5074926;28;20426;-69
2022/07/06 00:11:22;;;;;;;5.33;4.93;;;15.70;15.60;;;;;;5075203;28;20426;-68
2022/07/06 00:13:47;;;;;;;4.53;4.23;;;15.70;16.00;;;;;;5075236;28;20199;-69
2022/07/06 00:16:13;;;;;;;4.17;3.97;;;15.70;15.80;;;;;;5075264;28;20253;-67
2022/07/06 00:18:39;;;;;;;5.50;5.00;;;15.70;16.20;;;;;;5073307;28;20216;-68
2022/07/06 00:21:04;;;;;;;5.40;5.00;;;15.70;15.90;;;;;;5073673;28;20243;-67
2022/07/06 00:23:30;;;;;;;4.40;4.10;;;15.60;16.10;;;;;;5073918;28;20171;-67
2022/07/06 00:25:55;;;;;;;5.20;4.80;;;15.50;16.40;;;;;;5073609;28;20172;-68
2022/07/06 00:28:21;;;;;;;6.47;5.57;;;15.40;16.90;;;;;;5074584;28;20184;-68
2022/07/06 00:30:46;;;;;;;4.23;3.93;;;15.40;17.20;;;;;;5073675;28;20718;-68
2022/07/06 00:33:12;;;;;;;4.17;3.77;;;15.40;17.30;;;;;;5075338;28;20263;-70
2022/07/06 00:35:38;;;;;;;5.57;5.17;;;15.40;17.30;;;;;;5075053;28;20184;-69
2022/07/06 00:38:03;;;;;;;3.37;3.17;;;15.40;17.40;;;;;;5074111;28;20231;-68
2022/07/06 00:40:32;;;;;;;6.97;4.07;;;15.30;17.30;;;;;;5074621;28;20170;-68
2022/07/06 00:42:58;;;;;;;3.60;3.30;;;15.30;17.70;;;;;;5073311;28;20674;-67
2022/07/06 00:45:24;;;;;;;3.90;3.60;;;15.30;17.70;;;;;;5074434;28;20409;-68
2022/07/06 00:47:50;;;;;;;4.33;4.03;;;15.30;17.70;;;;;;5074670;28;20200;-68
2022/07/06 00:50:20;;;;;;;6.43;4.13;;;15.30;17.60;;;;;;5072855;28;20429;-67
2022/07/06 00:52:54;;;;;;;4.63;4.33;;;15.20;17.60;;;;;;5073425;28;20442;-68
2022/07/06 00:55:23;;;;;;;3.90;3.60;;;15.10;17.60;;;;;;5074438;28;20786;-67
2022/07/06 00:57:49;;;;;;;4.80;3.27;;;15.10;17.90;;;;;;5074334;28;20433;-68
2022/07/06 01:00:16;;;;;;;21.17;5.07;;;15.10;17.90;;;;;;5073874;28;20478;-68
2022/07/06 01:02:42;;;;;;;6.10;3.77;;;15.10;18.20;;;;;;5074220;28;20175;-68
2022/07/06 01:05:10;;;;;;;3.70;3.17;;;15.10;18.30;;;;;;5074247;28;20497;-68
2022/07/06 01:07:38;;;;;;;4.07;3.57;;;15.10;18.30;;;;;;5074255;28;20453;-69
2022/07/06 01:10:05;;;;;;;4.20;3.23;;;15.00;18.40;;;;;;5072882;28;20507;-68
2022/07/06 01:12:31;;;;;;;3.77;3.23;;;15.00;18.60;;;;;;5074015;28;20424;-68
2022/07/06 01:14:57;;;;;;;4.40;4.00;;;14.90;18.60;;;;;;5073975;28;20493;-68
2022/07/06 01:17:23;;;;;;;4.23;3.90;;;14.80;18.60;;;;;;5074005;28;20521;-67
2022/07/06 01:19:49;;;;;;;5.90;3.53;;;14.90;18.60;;;;;;5073410;28;20702;-68
2022/07/06 01:22:15;;;;;;;4.63;3.43;;;14.90;18.60;;;;;;5073999;28;20431;-68
2022/07/06 01:24:40;;;;;;;3.43;3.13;;;14.90;18.60;;;;;;5073920;28;20173;-68
2022/07/06 01:27:10;;;;;;;4.03;3.10;;;14.90;18.60;;;;;;5072504;28;20498;-69
2022/07/06 01:29:35;;;;;;;3.73;3.43;;;14.90;18.90;;;;;;5073417;28;20235;-69
2022/07/06 01:32:01;;;;;;;4.37;3.67;;;14.80;19.30;;;;;;5073795;28;20423;-68
2022/07/06 01:34:27;;;;;;;3.87;2.80;;;14.80;19.30;;;;;;5073744;28;20186;-68
2022/07/06 01:36:54;;;;;;;3.30;3.10;;;14.80;19.30;;;;;;5073651;28;20284;-69
2022/07/06 01:39:19;;;;;;;3.70;3.50;;;14.70;19.50;;;;;;5073114;28;20651;-68
2022/07/06 01:41:45;;;;;;;4.17;3.83;;;14.80;19.40;;;;;;5073527;28;20453;-68
2022/07/06 01:44:11;;;;;;;4.40;4.00;;;14.70;19.50;;;;;;5073423;28;20718;-68
2022/07/06 01:46:36;;;;;;;3.47;3.17;;;14.70;19.60;;;;;;5072078;28;20203;-68
2022/07/06 01:49:03;;;;;;;4.50;3.70;;;14.60;19.80;;;;;;5072884;28;20180;-68
2022/07/06 01:51:29;;;;;;;3.27;2.90;;;14.60;19.60;;;;;;5073328;28;20282;-68
2022/07/06 01:53:55;;;;;;;3.10;2.80;;;14.60;19.70;;;;;;5073363;28;20882;-68
2022/07/06 01:56:21;;;;;;;6.73;3.37;;;14.60;19.80;;;;;;5073074;28;20579;-69
2022/07/06 01:58:47;;;;;;;4.30;3.50;;;14.60;19.70;;;;;;5072736;28;20209;-69
2022/07/06 02:01:17;;;;;;;3.57;3.23;;;14.60;19.90;;;;;;5073203;28;20426;-68
2022/07/06 02:03:43;;;;;;;4.03;3.73;;;14.60;19.60;;;;;;5072960;28;20409;-67
2022/07/06 02:06:09;;;;;;;4.07;3.77;;;14.60;19.70;;;;;;5072625;28;20529;-66
2022/07/06 02:08:36;;;;;;;4.53;2.57;;;14.60;19.70;;;;;;5073145;28;20424;-68
2022/07/06 02:11:06;;;;;;;5.63;4.20;;;14.50;20.20;;;;;;5072876;28;20416;-68
2022/07/06 02:13:31;;;;;;;3.77;3.47;;;14.50;20.10;;;;;;5072888;28;20420;-67
2022/07/06 02:15:57;;;;;;;3.73;3.20;;;14.50;20.50;;;;;;5071372;28;20431;-69
2022/07/06 02:18:23;;;;;;;3.70;3.10;;;14.40;20.40;;;;;;5072387;28;20240;-69
2022/07/06 02:20:48;;;;;;;3.00;2.70;;;14.40;20.60;;;;;;5072701;28;20232;-69
2022/07/06 02:23:14;;;;;;;3.43;3.13;;;14.20;21.20;;;;;;5072734;28;20182;-68
2022/07/06 02:25:40;;;;;;;3.63;3.33;;;14.20;21.20;;;;;;5072526;28;20223;-68
2022/07/06 02:28:05;;;;;;;3.30;3.03;;;14.30;21.70;;;;;;5072424;28;20997;-69
2022/07/06 02:30:31;;;;;;;3.77;3.47;;;14.30;21.20;;;;;;5072672;28;20201;-70
2022/07/06 02:32:57;;;;;;;3.50;3.20;;;14.30;21.30;;;;;;5072431;28;20519;-67
2022/07/06 02:35:22;;;;;;;3.40;3.10;;;14.20;21.20;;;;;;5072519;28;20227;-67
2022/07/06 02:37:48;;;;;;;3.80;3.00;;;14.20;21.20;;;;;;5072884;28;20190;-69
2022/07/06 02:40:13;;;;;;;3.67;3.37;;;14.10;21.20;;;;;;5071953;28;20691;-69
2022/07/06 02:42:39;;;;;;;3.40;3.10;;;14.10;21.20;;;;;;5072353;28;20178;-67
2022/07/06 02:45:05;;;;;;;4.57;3.90;;;14.00;21.50;;;;;;5072366;28;20170;-68
2022/07/06 02:47:31;;;;;;;5.53;3.40;;;14.00;22.10;;;;;;5072169;28;20755;-69
2022/07/06 02:49:56;;;;;;;4.23;3.70;;;13.90;22.30;;;;;;5072043;28;20499;-69
2022/07/06 02:52:22;;;;;;;3.73;3.40;;;13.90;22.30;;;;;;5072190;28;20240;-69
2022/07/06 02:54:48;;;;;;;3.63;3.33;;;13.90;22.50;;;;;;5072144;28;20186;-69
2022/07/06 02:57:14;;;;;;;4.13;3.73;;;13.90;22.40;;;;;;5072011;28;20759;-69
2022/07/06 02:59:40;;;;;;;3.50;3.20;;;13.80;22.70;;;;;;5071598;28;20546;-69
2022/07/06 03:02:06;;;;;;;4.13;3.83;;;13.80;22.90;;;;;;5072113;28;20503;-67
2022/07/06 03:04:32;;;;;;;4.23;3.90;;;13.80;23.10;;;;;;5072141;28;20170;-68
2022/07/06 03:06:57;;;;;;;3.60;3.30;;;13.80;22.80;;;;;;5070533;28;20448;-68
2022/07/06 03:09:23;;;;;;;3.10;2.87;;;13.80;23.10;;;;;;5071565;28;20486;-68
2022/07/06 03:11:49;;;;;;;5.47;3.63;;;13.70;22.90;;;;;;5070809;28;20210;-68
2022/07/06 03:14:14;;;;;;;4.40;3.20;;;13.70;23.30;;;;;;5071973;28;20498;-70
2022/07/06 03:16:40;;;;;;;3.33;3.03;;;13.70;23.20;;;;;;5071223;28;20201;-68
2022/07/06 03:19:05;;;;;;;5.73;4.70;;;13.70;23.10;;;;;;5071977;28;20385;-68
2022/07/06 03:21:31;;;;;;;4.63;3.50;;;13.70;23.30;;;;;;5072358;28;20189;-68
2022/07/06 03:23:57;;;;;;;3.83;3.47;;;13.70;23.40;;;;;;5072033;28;20178;-68
2022/07/06 03:26:22;;;;;;;3.70;3.40;;;13.70;23.30;;;;;;5071877;28;20432;-69
2022/07/06 03:28:48;;;;;;;3.33;2.90;;;13.70;23.30;;;;;;5071605;28;20691;-68
2022/07/06 03:31:13;;;;;;;5.60;3.60;;;13.70;23.30;;;;;;5070558;28;20177;-68
2022/07/06 03:33:39;;;;;;;3.70;3.40;;;13.80;23.30;;;;;;5071718;28;20181;-68
2022/07/06 03:36:05;;;;;;;3.13;2.83;;;13.80;23.30;;;;;;5070459;28;20234;-68
2022/07/06 03:38:31;;;;;;;3.97;3.67;;;13.80;23.10;;;;;;5071361;28;20255;-68
2022/07/06 03:40:56;;;;;;;4.43;4.00;;;13.70;23.40;;;;;;5071697;28;20181;-68
2022/07/06 03:43:22;;;;;;;4.30;3.90;;;13.60;23.80;;;;;;5071756;28;20184;-68
2022/07/06 03:45:47;;;;;;;3.67;3.37;;;13.60;23.80;;;;;;5071721;28;20184;-68
2022/07/06 03:48:13;;;;;;;3.63;3.33;;;13.70;23.80;;;;;;5071329;28;20622;-69
2022/07/06 03:50:38;;;;;;;4.10;3.73;;;13.80;23.60;;;;;;5070413;28;20664;-68
2022/07/06 03:53:04;;;;;;;3.60;3.27;;;13.70;23.60;;;;;;5071666;28;20216;-68
2022/07/06 03:55:30;;;;;;;4.40;3.40;;;13.70;23.70;;;;;;5071943;28;20181;-68
2022/07/06 03:57:55;;;;;;;4.80;3.60;;;13.70;23.50;;;;;;5071260;28;20205;-69
2022/07/06 04:00:21;;;;;;;4.50;4.10;;;13.80;23.50;;;;;;5071339;28;20206;-68
2022/07/06 04:02:46;;;;;;;4.17;3.83;;;13.80;23.40;;;;;;5071461;28;20567;-68
2022/07/06 04:05:12;;;;;;;4.37;3.97;;;13.90;23.10;;;;;;5071507;28;20201;-67
2022/07/06 04:07:37;;;;;;;3.50;3.20;;;14.00;22.70;;;;;;5091534;22;20718;-68
2022/07/06 04:10:03;;;;;;;4.17;3.77;;;14.00;22.90;;;;;;5071004;28;20649;-68
2022/07/06 04:12:29;;;;;;;4.33;3.80;;;14.00;22.70;;;;;;5071701;28;20178;-68
2022/07/06 04:14:57;;;;;;;3.50;3.20;;;14.00;22.80;;;;;;5071237;28;20416;-69
2022/07/06 04:18:04;;;;;;;5.90;4.47;;;14.10;22.70;;;;;;5071188;28;20201;-69
2022/07/06 04:20:12;;;;;;;4.57;3.60;;;14.20;22.60;;;;;;5067700;28;20557;-70
2022/07/06 04:22:41;;;;;;;3.90;3.47;;;14.20;22.30;;;;;;5070005;28;20946;-68
2022/07/06 04:25:07;;;;;;;5.70;4.07;;;14.30;22.40;;;;;;5071330;28;20900;-69
2022/07/06 04:27:33;;;;;;;7.90;4.07;;;14.40;22.10;;;;;;5070941;28;20447;-69
2022/07/06 04:29:59;;;;;;;5.43;4.87;;;14.60;21.50;;;;;;5074642;28;20907;-68
2022/07/06 04:32:24;;;;;;;5.50;4.40;;;14.60;21.50;;;;;;5075911;28;20182;-69
2022/07/06 04:34:50;;;;;;;5.17;4.77;;;14.70;21.60;;;;;;5073429;28;20181;-68
2022/07/06 04:37:15;;;;;;;4.60;4.20;;;14.70;21.50;;;;;;5074453;28;20195;-68
2022/07/06 04:39:41;;;;;;;5.13;4.67;;;14.80;21.50;;;;;;5074336;28;20209;-68
2022/07/06 04:42:06;;;;;;;4.70;4.30;;;14.90;21.20;;;;;;5074507;28;20174;-68
2022/07/06 04:44:32;;;;;;;5.30;4.80;;;14.90;21.10;;;;;;5074570;28;20176;-68
2022/07/06 04:46:57;;;;;;;6.43;5.47;;;15.00;20.70;;;;;;5074492;28;20664;-68
2022/07/06 04:49:23;;;;;;;5.00;4.50;;;15.10;20.60;;;;;;5074507;28;20615;-68
2022/07/06 04:51:48;;;;;;;5.77;5.27;;;15.10;20.50;;;;;;5074344;28;20181;-68
2022/07/06 04:54:14;;;;;;;5.87;4.33;;;15.30;20.20;;;;;;5074302;28;20185;-69
2022/07/06 04:56:39;;;;;;;5.13;4.63;;;15.40;20.40;;;;;;5074234;28;20220;-69
2022/07/06 04:59:05;;;;;;;5.80;5.30;;;15.90;21.20;;;;;;5073741;28;20201;-69
2022/07/06 05:01:31;;;;;;;6.80;5.87;;;17.20;19.00;;;;;;5074168;28;20698;-69
2022/07/06 05:03:56;;;;;;;10.03;9.37;;;18.80;15.70;;;;;;5074056;28;20182;-69
2022/07/06 05:06:23;;;;;;;11.77;11.27;;;20.20;12.20;;;;;;5073881;28;20680;-69
2022/07/06 05:08:48;;;;;;;13.67;12.97;;;21.60;9.90;;;;;;5073716;28;20454;-69
2022/07/06 05:11:14;;;;;;;13.63;13.03;;;22.80;8.10;;;;;;5074179;28;20208;-69
2022/07/06 05:13:39;;;;;;;14.43;13.93;;;23.70;5.50;;;;;;5073876;28;20181;-69
2022/07/06 05:16:05;;;;;;;15.23;14.43;;;24.70;3.60;;;;;;5074247;28;20205;-69
2022/07/06 05:18:31;;;;;;;14.17;13.67;;;25.70;2.00;;;;;;5073561;28;20525;-70
2022/07/06 05:20:56;;;;;;;14.53;14.03;;;26.80;2.50;;;;;;5073577;28;20174;-70
2022/07/06 05:23:22;;;;;;;15.40;14.60;;;27.80;1.00;;;;;;5073631;28;20594;-70
2022/07/06 05:25:47;;;;;;;16.63;15.93;;;28.70;1.00;;;;;;5073782;28;20170;-70
2022/07/06 05:28:13;;;;;;;15.60;14.90;;;29.40;1.00;;;;;;5073549;28;20233;-70
2022/07/06 05:30:38;;;;;;;16.13;15.53;;;30.20;1.00;;;;;;5073703;28;20212;-70
2022/07/06 05:33:04;;;;;;;15.77;15.17;;;30.80;1.00;;;;;;5073571;28;20178;-70
2022/07/06 05:35:30;;;;;;;16.40;15.80;;;31.30;1.00;;;;;;5073490;28;20277;-70
2022/07/06 05:37:55;;;;;;;17.90;17.20;;;30.60;1.00;;;;;;5073316;28;20198;-70
2022/07/06 05:40:21;;;;;;;17.40;16.70;;;31.00;1.00;;;;;;5072707;28;20266;-70
2022/07/06 05:42:46;;;;;;;16.83;16.13;;;29.20;1.00;;;;;;5073454;28;20193;-70
2022/07/06 05:45:13;;;;;;;17.20;16.50;;;30.50;1.00;;;;;;5073355;28;20298;-70
2022/07/06 05:50:22;;;;;;;17.47;16.77;;;30.60;1.00;;;;;;5073238;28;20491;-70
2022/07/06 05:52:59;;;;;;;18.20;17.40;;;31.40;1.00;;;;;;5073256;28;20915;-69
2022/07/06 05:55:25;;;;;;;16.90;16.20;;;32.50;1.00;;;;;;5072015;28;20181;-69
2022/07/06 05:57:53;;;;;;;17.60;16.90;;;33.40;1.00;;;;;;5073163;28;20443;-69
2022/07/06 06:00:20;;;;;;;17.17;16.47;;;34.00;1.00;;;;;;5072922;28;20448;-69
2022/07/06 06:02:45;;;;;;;19.30;18.03;;;34.00;1.00;;;;;;5073289;28;20511;-69
2022/07/06 06:05:13;;;;;;;17.60;16.80;;;34.60;1.00;;;;;;5073433;28;20499;-69
2022/07/06 06:07:39;;;;;;;17.23;16.53;;;35.10;1.00;;;;;;5071904;28;20213;-69
2022/07/06 06:10:08;;;;;;;17.07;16.27;;;34.60;1.00;;;;;;5072932;28;20465;-69
2022/07/06 06:12:34;;;;;;;20.33;18.87;;;34.20;1.00;;;;;;5072844;28;20420;-69
2022/07/06 06:15:00;;;;;;;18.33;17.20;;;34.80;1.00;;;;;;5073334;28;20408;-69
2022/07/06 06:17:25;;;;;;;18.13;17.33;;;35.50;1.00;;;;;;5073644;28;20485;-69
2022/07/06 06:19:51;;;;;;;18.10;17.10;;;36.10;1.00;;;;;;5072757;28;20210;-70
2022/07/06 06:22:16;;;;;;;17.00;16.20;;;36.40;1.00;;;;;;5072935;28;20185;-69
2022/07/06 06:24:42;;;;;;;17.03;16.20;;;36.30;1.00;;;;;;5071563;28;20177;-69
2022/07/06 06:27:07;;;;;;;17.67;16.97;;;36.60;1.00;;;;;;5072646;28;20205;-69
2022/07/06 06:29:33;;;;;;;17.33;16.53;;;36.50;1.00;;;;;;5072486;28;20182;-69
2022/07/06 06:31:58;;;;;;;17.47;16.80;;;36.50;1.00;;;;;;5072899;28;20186;-69
2022/07/06 06:34:24;;;;;;;17.93;17.23;;;36.90;1.00;;;;;;5072776;28;20182;-69
2022/07/06 06:36:50;;;;;;;17.70;16.80;;;36.90;1.00;;;;;;5072436;28;20221;-69
2022/07/06 06:39:16;;;;;;;17.43;16.73;;;37.00;1.00;;;;;;5072172;28;20232;-70
2022/07/06 06:41:41;;;;;;;17.00;16.30;;;37.00;1.00;;;;;;5072794;28;20174;-69
2022/07/06 06:44:07;;;;;;;18.13;17.23;;;34.70;1.00;;;;;;5072492;28;20580;-70
2022/07/06 06:46:33;;;;;;;16.63;16.03;;;35.00;1.00;;;;;;5072562;28;20197;-69
2022/07/06 06:48:58;;;;;;;17.10;16.40;;;35.80;1.00;;;;;;5072137;28;20210;-70
2022/07/06 06:51:24;;;;;;;18.13;17.20;;;35.10;1.00;;;;;;5071612;28;20648;-70
2022/07/06 06:53:49;;;;;;;17.87;17.03;;;34.10;1.00;;;;;;5072588;28;20214;-69
2022/07/06 06:56:15;;;;;;;17.43;16.73;;;33.90;1.00;;;;;;5072974;28;20200;-69
2022/07/06 06:58:41;;;;;;;17.07;16.37;;;33.90;1.00;;;;;;5072194;28;20706;-69
2022/07/06 07:01:06;;;;;;;17.23;16.50;;;33.80;1.00;;;;;;5072242;28;20170;-69
2022/07/06 07:03:32;;;;;;;16.97;16.33;;;33.10;1.00;;;;;;5072357;28;20260;-69
2022/07/06 07:05:58;;;;;;;17.70;16.80;;;30.90;1.00;;;;;;5072271;28;20184;-69
2022/07/06 07:08:23;;;;;;;16.70;16.00;;;29.40;1.00;;;;;;5070548;28;20217;-69
2022/07/06 07:10:49;;;;;;;17.00;16.30;;;29.30;1.00;;;;;;5072681;28;20915;-69
2022/07/06 07:13:15;;;;;;;16.57;15.87;;;28.10;1.00;;;;;;5071957;28;20652;-69
2022/07/06 07:15:40;;;;;;;16.43;15.73;;;27.70;1.00;;;;;;5072033;28;20174;-69
2022/07/06 07:18:06;;;;;;;17.20;16.37;;;27.10;1.00;;;;;;5072286;28;20193;-68
2022/07/06 07:20:33;;;;;;;17.47;16.40;;;25.70;1.00;;;;;;5070591;28;20205;-68
2022/07/06 07:22:59;;;;;;;16.83;16.13;;;26.30;1.00;;;;;;5072061;28;20178;-68
2022/07/06 07:25:25;;;;;;;17.00;16.20;;;26.60;1.00;;;;;;5072019;28;20456;-68
2022/07/06 07:27:50;;;;;;;16.43;15.80;;;24.80;1.00;;;;;;5071770;28;20489;-68
2022/07/06 07:30:16;;;;;;;15.30;14.70;;;26.30;1.00;;;;;;5071531;28;20416;-69
2022/07/06 07:32:41;;;;;;;17.07;16.37;;;27.70;1.00;;;;;;5071974;28;20256;-69
2022/07/06 07:35:07;;;;;;;15.97;15.27;;;29.20;1.00;;;;;;5071744;28;20177;-68
2022/07/06 07:37:33;;;;;;;16.50;15.80;;;28.30;1.00;;;;;;5072008;28;20764;-69
2022/07/06 07:39:59;;;;;;;16.57;15.87;;;28.70;1.00;;;;;;5071524;28;20539;-69
2022/07/06 07:42:24;;;;;;;16.60;15.80;;;29.80;1.00;;;;;;5071764;28;20633;-70
2022/07/06 07:44:51;;;;;;;16.87;16.17;;;30.40;1.00;;;;;;5071936;28;20166;-69
2022/07/06 07:47:16;;;;;;;16.03;15.30;;;29.30;1.00;;;;;;5071862;28;20548;-69
2022/07/06 07:49:42;;;;;;;16.90;16.10;;;30.50;1.00;;;;;;5071376;28;20481;-69
2022/07/06 07:52:08;;;;;;;16.37;15.67;;;31.20;1.00;;;;;;5071639;28;20186;-69
2022/07/06 07:54:33;;;;;;;16.73;15.93;;;27.50;1.00;;;;;;5071791;28;20180;-69
2022/07/06 07:56:59;;;;;;;15.63;14.93;;;26.40;1.00;;;;;;5070275;28;20201;-69
2022/07/06 07:59:25;;;;;;;16.00;15.30;;;27.70;1.00;;;;;;5071357;28;20263;-69
2022/07/06 08:01:50;;;;;;;14.77;14.17;;;27.50;1.00;;;;;;5072012;28;20181;-69
2022/07/06 08:04:16;;;;;;;16.07;15.37;;;28.70;1.00;;;;;;5075675;28;20182;-69
2022/07/06 08:06:42;;;;;;;16.50;15.80;;;30.00;1.00;;;;;;5075690;28;20204;-69
2022/07/06 08:09:07;;;;;;;15.83;15.23;;;31.10;1.00;;;;;;5075495;28;20846;-69
2022/07/06 08:11:36;;;;;;;16.40;15.60;;;32.00;1.00;;;;;;5075679;28;20247;-69
2022/07/06 08:14:03;;;;;;;16.03;15.33;;;29.70;1.00;;;;;;5076131;28;20189;-69
2022/07/06 08:16:29;;;;;;;15.77;15.00;;;30.90;1.00;;;;;;5075149;28;20446;-69
2022/07/06 08:18:54;;;;;;;17.10;16.30;;;32.10;1.00;;;;;;5075009;28;20455;-69
2022/07/06 08:21:20;;;;;;;15.60;15.00;;;32.50;1.00;;;;;;5075263;28;20698;-69
2022/07/06 08:23:46;;;;;;;15.70;15.10;;;32.90;1.00;;;;;;5075235;28;20170;-69
2022/07/06 08:26:11;;;;;;;15.67;15.07;;;33.10;1.00;;;;;;5075004;28;20317;-69
2022/07/06 08:28:37;;;;;;;16.13;15.47;;;33.10;1.00;;;;;;5075065;28;20466;-69
2022/07/06 08:31:03;;;;;;;15.80;15.10;;;32.00;1.00;;;;;;5075038;28;20277;-69
2022/07/06 08:33:28;;;;;;;15.40;14.70;;;31.80;1.00;;;;;;5075276;28;20190;-69
2022/07/06 08:35:54;;;;;;;15.73;15.03;;;;;;;;;;5075385;28;20182;-69
2022/07/06 08:38:20;;;;;;;15.77;15.07;;;31.50;1.00;;;;;;5074582;28;20193;-69
2022/07/06 08:40:51;;;;;;;16.80;16.00;;;28.80;1.00;;;;;;5073496;28;20515;-69
2022/07/06 08:43:17;;;;;;;15.73;15.10;;;29.20;1.00;;;;;;5075036;28;20545;-69
2022/07/06 08:45:45;;;;;;;16.37;15.43;;;28.90;1.00;;;;;;5074782;28;20933;-69
2022/07/06 08:48:12;;;;;;;16.17;15.37;;;27.00;1.00;;;;;;5074307;28;20561;-69
2022/07/06 08:50:38;;;;;;;15.90;15.30;;;26.80;1.00;;;;;;5074653;28;20414;-69
2022/07/06 08:53:04;;;;;;;16.53;15.83;;;27.20;1.00;;;;;;5074417;28;20779;-69
2022/07/06 08:55:31;;;;;;;16.07;15.27;;;27.00;1.00;;;;;;5073160;28;20416;-69
2022/07/06 08:57:57;;;;;;;16.10;15.40;;;27.20;1.00;;;;;;5074212;28;20443;-69
2022/07/06 09:00:24;;;;;;;16.50;15.63;;;26.70;1.00;;;;;;5074426;28;20487;-69
2022/07/06 09:02:53;;;;;;;16.30;15.47;;;25.90;1.00;;;;;;5074619;28;20408;-69
2022/07/06 09:05:21;;;;;;;16.20;15.30;;;25.50;1.00;;;;;;5074416;28;20427;-68
2022/07/06 09:07:50;;;;;;;15.30;14.60;;;24.90;1.00;;;;;;5074128;28;20451;-68
2022/07/06 09:10:18;;;;;;;15.80;15.10;;;24.20;1.00;;;;;;5074024;28;20417;-68
2022/07/06 09:12:44;;;;;;;15.20;14.60;;;23.90;1.00;;;;;;5074474;28;20566;-69
2022/07/06 09:15:10;;;;;;;16.33;15.43;;;23.60;1.00;;;;;;5073169;28;20511;-69
2022/07/06 09:17:39;;;;;;;14.50;13.90;;;23.30;1.00;;;;;;5074501;28;20198;-69
2022/07/06 09:20:08;;;;;;;15.10;14.30;;;22.90;1.70;;;;;;5074300;28;20205;-69
2022/07/06 09:22:34;;;;;;;15.07;14.47;;;22.50;2.00;;;;;;5074653;28;20899;-69
2022/07/06 09:25:14;;;;;;;15.37;14.67;;;22.50;2.30;;;;;;5074558;28;20439;-68
2022/07/06 09:27:42;;;;;;;14.63;13.93;;;21.90;2.90;;;;;;5073963;28;20190;-69
2022/07/06 09:30:09;;;;;;;14.50;13.70;;;21.80;3.50;;;;;;5073702;28;20903;-69
2022/07/06 09:32:45;;;;;;;14.27;13.67;;;22.10;3.70;;;;;;5073994;28;20853;-68
2022/07/06 09:35:25;;;;;;;14.63;13.87;;;22.40;3.20;;;;;;5074172;28;20899;-69
2022/07/06 09:38:19;;;;;;;13.80;13.20;;;22.30;2.90;;;;;;5073755;28;20460;-69
2022/07/06 09:40:45;;;;;;;13.97;13.27;;;22.60;3.20;;;;;;5060013;28;20434;-69
2022/07/06 09:43:17;;;;;;;15.20;14.40;;;22.70;2.60;;;;;;5074104;28;20958;-68
2022/07/06 09:45:44;;;;;;;13.67;13.07;;;22.60;2.10;;;;;;5073990;28;20400;-69
2022/07/06 09:48:18;;;;;;;14.43;13.83;;;22.90;2.10;;;;;;5073388;28;20953;-69
2022/07/06 09:50:50;;;;;;;14.57;13.87;;;23.00;1.50;;;;;;5073877;28;20408;-69
2022/07/06 09:53:17;;;;;;;15.03;14.33;;;23.10;2.00;;;;;;5073788;28;20899;-69
2022/07/06 09:55:47;;;;;;;14.00;13.40;;;23.40;1.50;;;;;;5073519;28;20439;-69
2022/07/06 09:58:13;;;;;;;16.53;15.50;;;23.70;1.00;;;;;;5072994;28;20458;-69
2022/07/06 10:00:38;;;;;;;15.33;14.63;;;23.90;1.00;;;;;;5073434;28;21096;-69
2022/07/06 10:03:05;;;;;;;14.93;14.33;;;24.20;1.00;;;;;;5073295;28;20451;-70
2022/07/06 10:05:32;;;;;;;14.33;13.73;;;24.40;1.00;;;;;;5073049;28;20223;-69
2022/07/06 10:07:59;;;;;;;16.33;15.07;;;24.60;1.00;;;;;;5095189;22;20676;-69
2022/07/06 10:10:29;;;;;;;15.87;15.17;;;24.70;1.00;;;;;;5073381;28;20845;-70
2022/07/06 10:12:59;;;;;;;15.00;14.40;;;24.60;1.00;;;;;;5074788;28;20423;-69
2022/07/06 10:15:26;;;;;;;14.87;14.17;;;24.80;1.00;;;;;;5074092;28;20785;-69
2022/07/06 10:17:53;;;;;;;15.70;15.00;;;25.00;1.00;;;;;;5073138;28;20425;-70
2022/07/06 10:20:20;;;;;;;14.30;13.70;;;25.10;1.00;;;;;;5071292;28;20467;-71
2022/07/06 10:22:48;;;;;;;15.10;14.10;;;24.40;1.00;;;;;;5073942;28;20412;-69
2022/07/06 10:25:19;;;;;;;14.53;13.93;;;24.20;1.00;;;;;;5073362;28;20483;-69
2022/07/06 10:27:48;;;;;;;14.67;14.07;;;24.00;1.00;;;;;;5071810;28;20439;-70
2022/07/06 10:30:15;;;;;;;13.50;13.00;;;23.90;1.00;;;;;;5072543;28;20547;-70
2022/07/06 10:32:43;;;;;;;14.47;13.77;;;23.80;1.00;;;;;;5072902;28;20780;-71
2022/07/06 10:35:09;;;;;;;14.80;14.10;;;24.00;1.00;;;;;;5072888;28;20425;-70
2022/07/06 10:37:35;;;;;;;15.33;14.57;;;24.50;1.00;;;;;;5071249;28;20782;-70
2022/07/06 10:42:56;;;;;;;14.60;14.00;;;24.90;1.00;;;;;;5073044;28;20971;-70
2022/07/06 10:45:27;;;;;;;15.70;15.10;;;25.40;1.00;;;;;;5072852;28;20412;-70
2022/07/06 10:48:11;;;;;;;16.27;15.03;;;25.90;1.00;;;;;;5072689;28;20428;-70
2022/07/06 10:50:47;;;;;;;14.40;13.80;;;25.60;1.00;;;;;;5072790;28;20417;-69
2022/07/06 10:53:15;;;;;;;15.30;14.70;;;24.70;1.00;;;;;;5072587;28;20412;-69
2022/07/06 10:55:46;;;;;;;15.10;14.50;;;25.00;1.00;;;;;;5072521;28;20419;-69
2022/07/06 10:58:11;;;;;;;15.27;14.67;;;25.10;1.00;;;;;;5071936;28;20811;-70
2022/07/06 11:00:51;;;;;;;16.33;15.53;;;25.30;1.00;;;;;;5072224;28;20452;-70
2022/07/06 11:03:38;;;;;;;15.90;15.20;;;25.10;1.00;;;;;;5072521;28;20219;-68
2022/07/06 11:06:09;;;;;;;15.03;14.33;;;25.30;1.00;;;;;;5072335;28;20498;-69
2022/07/06 11:09:03;;;;;;;15.70;15.10;;;25.90;1.00;;;;;;5071981;28;20451;-69
2022/07/06 11:11:35;;;;;;;15.57;14.97;;;25.90;1.00;;;;;;5070863;28;20456;-70
2022/07/06 11:14:15;;;;;;;15.87;15.13;;;26.30;1.00;;;;;;5070875;28;20443;-70
2022/07/06 11:16:47;;;;;;;15.60;14.90;;;26.60;1.00;;;;;;5072087;28;20408;-71
2022/07/06 11:19:17;;;;;;;16.90;15.70;;;26.80;1.00;;;;;;5071663;28;20467;-70
2022/07/06 11:21:48;;;;;;;15.30;14.70;;;26.70;1.00;;;;;;5071945;28;20818;-70
2022/07/06 11:24:16;;;;;;;15.83;15.20;;;26.40;1.00;;;;;;5071915;28;20412;-69
2022/07/06 11:26:44;;;;;;;15.43;14.80;;;25.70;1.00;;;;;;5071970;28;20809;-70
2022/07/06 11:29:11;;;;;;;14.13;13.53;;;25.80;1.00;;;;;;5070290;28;20416;-70
2022/07/06 11:31:39;;;;;;;14.30;13.70;;;25.70;1.00;;;;;;5070582;28;20523;-69
2022/07/06 11:34:06;;;;;;;14.70;14.00;;;25.80;1.00;;;;;;5071052;28;20424;-70
2022/07/06 11:36:32;;;;;;;15.20;14.60;;;26.20;1.00;;;;;;5072554;28;20766;-70
2022/07/06 11:38:58;;;;;;;15.10;14.50;;;25.70;1.00;;;;;;5077842;28;20443;-70
2022/07/06 11:41:24;;;;;;;15.40;14.80;;;25.60;1.00;;;;;;5078596;28;20231;-69
2022/07/06 11:43:51;;;;;;;14.20;13.60;;;25.40;1.00;;;;;;5079041;28;20226;-68
2022/07/06 11:46:31;;;;;;;14.57;13.97;;;25.40;1.00;;;;;;5078656;28;20174;-70
2022/07/06 11:48:59;;;;;;;14.63;13.93;;;25.60;1.00;;;;;;5078059;28;20777;-71
2022/07/06 11:51:27;;;;;;;14.87;14.27;;;25.10;1.00;;;;;;5078497;28;20415;-71
2022/07/06 11:53:55;;;;;;;15.20;14.50;;;24.90;1.00;;;;;;5078535;28;20469;-69
2022/07/06 11:56:22;;;;;;;14.47;13.87;;;24.70;1.00;;;;;;5078444;28;20545;-69
2022/07/06 11:58:51;;;;;;;15.07;14.23;;;24.90;1.00;;;;;;5077989;28;20558;-70
2022/07/06 12:01:17;;;;;;;14.30;13.80;;;25.10;1.00;;;;;;5078351;28;20450;-70
2022/07/06 12:03:43;;;;;;;14.80;14.20;;;24.80;1.00;;;;;;5078572;28;20404;-69
2022/07/06 12:06:15;;;;;;;48.13;27.80;;;24.90;1.00;;;;;;5078067;28;20178;-69
2022/07/06 12:08:45;;;;;;;15.13;14.47;;;25.00;1.00;;;;;;5077740;28;20500;-69
2022/07/06 12:11:16;;;;;;;19.07;17.43;;;25.30;1.00;;;;;;5078965;28;20407;-70
2022/07/06 12:13:42;;;;;;;14.90;14.30;;;25.40;1.00;;;;;;5078696;28;20416;-69
2022/07/06 12:16:15;;;;;;;15.30;14.70;;;24.50;1.00;;;;;;5078939;28;20465;-69
2022/07/06 12:18:43;;;;;;;14.00;13.40;;;24.40;1.00;;;;;;5077654;28;20428;-71
2022/07/06 12:21:10;;;;;;;14.83;13.60;;;24.00;1.00;;;;;;5079682;28;20404;-69
2022/07/06 12:23:44;;;;;;;14.53;13.97;;;23.90;1.00;;;;;;5079486;28;20416;-70
2022/07/06 12:26:11;;;;;;;15.60;14.90;;;23.90;1.00;;;;;;5078055;28;20427;-70
2022/07/06 12:28:36;;;;;;;16.23;15.43;;;24.30;1.00;;;;;;5080708;28;20440;-69
2022/07/06 12:31:02;;;;;;;15.00;14.30;;;24.60;1.00;;;;;;5077955;28;20408;-69
2022/07/06 12:33:28;;;;;;;14.83;13.97;;;24.60;1.00;;;;;;5079268;28;20239;-70
2022/07/06 12:35:54;;;;;;;15.23;14.10;;;24.80;1.00;;;;;;5078084;28;20404;-70
2022/07/06 12:38:26;;;;;;;14.37;13.77;;;24.90;1.00;;;;;;5076670;28;20561;-69
2022/07/06 12:40:53;;;;;;;15.10;14.30;;;25.00;1.00;;;;;;5078358;28;20264;-70
2022/07/06 12:43:37;;;;;;;15.33;14.53;;;24.90;1.00;;;;;;5078429;28;20392;-70
2022/07/06 12:46:38;;;;;;;14.20;13.60;;;25.10;1.00;;;;;;5077255;28;20463;-69